sensor_id;sensor_type;location;lat;lon;timestamp;temperature;humidity
31619;DHT22;18230;51.502;7.108;2022-07-29T00:03:12;20.40;92.90
31619;DHT22;18230;51.502;7.108;2022-07-29T00:08:13;20.30;93.20
31619;DHT22;18230;51.502;7.108;2022-07-29T00:13:15;20.40;93.30
31619;DHT22;18230;51.502;7.108;2022-07-29T00:18:16;20.30;93.40
31619;DHT22;18230;51.502;7.108;2022-07-29T00:23:16;20.40;93.30
31619;DHT22;18230;51.502;7.108;2022-07-29T00:28:17;20.40;93.50
31619;DHT22;18230;51.502;7.108;2022-07-29T00:33:17;20.30;93.60
31619;DHT22;18230;51.502;7.108;2022-07-29T00:38:18;20.30;93.70
31619;DHT22;18230;51.502;7.108;2022-07-29T00:43:20;20.20;93.90
31619;DHT22;18230;51.502;7.108;2022-07-29T00:48:20;20.20;94.00
31619;DHT22;18230;51.502;7.108;2022-07-29T00:53:21;20.00;94.40
31619;DHT22;18230;51.502;7.108;2022-07-29T00:58:22;20.10;94.50
31619;DHT22;18230;51.502;7.108;2022-07-29T01:03:22;20.00;94.70
31619;DHT22;18230;51.502;7.108;2022-07-29T01:08:23;20.00;94.80
31619;DHT22;18230;51.502;7.108;2022-07-29T01:13:24;19.90;95.10
31619;DHT22;18230;51.502;7.108;2022-07-29T01:18:28;19.80;95.30
31619;DHT22;18230;51.502;7.108;2022-07-29T01:33:57;19.70;96.10
31619;DHT22;18230;51.502;7.108;2022-07-29T01:39:02;19.60;96.30
31619;DHT22;18230;51.502;7.108;2022-07-29T01:44:12;19.50;96.60
31619;DHT22;18230;51.502;7.108;2022-07-29T01:49:15;19.60;96.90
31619;DHT22;18230;51.502;7.108;2022-07-29T01:54:21;19.60;97.10
31619;DHT22;18230;51.502;7.108;2022-07-29T01:59:25;19.70;97.40
31619;DHT22;18230;51.502;7.108;2022-07-29T02:04:26;19.60;97.50
31619;DHT22;18230;51.502;7.108;2022-07-29T02:09:27;19.60;97.70
31619;DHT22;18230;51.502;7.108;2022-07-29T02:14:30;19.50;97.90
31619;DHT22;18230;51.502;7.108;2022-07-29T02:19:33;19.50;98.30
31619;DHT22;18230;51.502;7.108;2022-07-29T02:24:35;19.50;98.30
31619;DHT22;18230;51.502;7.108;2022-07-29T02:29:37;19.50;98.20
31619;DHT22;18230;51.502;7.108;2022-07-29T02:34:39;19.50;98.50
31619;DHT22;18230;51.502;7.108;2022-07-29T02:39:40;19.40;99.00
31619;DHT22;18230;51.502;7.108;2022-07-29T02:44:42;19.30;99.30
31619;DHT22;18230;51.502;7.108;2022-07-29T02:49:45;19.30;99.70
31619;DHT22;18230;51.502;7.108;2022-07-29T03:00:07;19.20;99.90
31619;DHT22;18230;51.502;7.108;2022-07-29T03:05:09;19.20;99.90
31619;DHT22;18230;51.502;7.108;2022-07-29T03:10:11;19.20;99.90
31619;DHT22;18230;51.502;7.108;2022-07-29T03:15:12;19.20;99.90
31619;DHT22;18230;51.502;7.108;2022-07-29T03:20:13;19.20;99.90
31619;DHT22;18230;51.502;7.108;2022-07-29T03:25:14;19.20;99.90
31619;DHT22;18230;51.502;7.108;2022-07-29T03:30:15;19.30;99.90
31619;DHT22;18230;51.502;7.108;2022-07-29T03:35:16;19.30;99.90
31619;DHT22;18230;51.502;7.108;2022-07-29T03:40:22;19.30;99.90
31619;DHT22;18230;51.502;7.108;2022-07-29T03:45:25;19.20;99.90
31619;DHT22;18230;51.502;7.108;2022-07-29T03:50:25;19.20;99.90
31619;DHT22;18230;51.502;7.108;2022-07-29T03:55:26;19.30;99.90
31619;DHT22;18230;51.502;7.108;2022-07-29T04:00:28;19.30;99.90
31619;DHT22;18230;51.502;7.108;2022-07-29T04:05:29;19.30;99.90
31619;DHT22;18230;51.502;7.108;2022-07-29T04:10:29;19.30;99.90
31619;DHT22;18230;51.502;7.108;2022-07-29T04:15:30;19.20;99.90
31619;DHT22;18230;51.502;7.108;2022-07-29T04:20:30;19.10;99.90
31619;DHT22;18230;51.502;7.108;2022-07-29T04:25:31;19.10;99.90
31619;DHT22;18230;51.502;7.108;2022-07-29T04:30:32;19.10;99.90
31619;DHT22;18230;51.502;7.108;2022-07-29T04:35:34;19.00;99.90
31619;DHT22;18230;51.502;7.108;2022-07-29T04:40:35;18.90;99.90
31619;DHT22;18230;51.502;7.108;2022-07-29T04:45:35;18.70;99.90
31619;DHT22;18230;51.502;7.108;2022-07-29T04:50:39;18.50;99.90
31619;DHT22;18230;51.502;7.108;2022-07-29T04:55:40;18.50;99.90
31619;DHT22;18230;51.502;7.108;2022-07-29T05:00:41;18.60;99.90
31619;DHT22;18230;51.502;7.108;2022-07-29T05:05:42;18.60;99.90
31619;DHT22;18230;51.502;7.108;2022-07-29T05:10:43;18.70;99.90
31619;DHT22;18230;51.502;7.108;2022-07-29T05:15:43;18.70;99.90
31619;DHT22;18230;51.502;7.108;2022-07-29T05:20:44;18.70;99.90
31619;DHT22;18230;51.502;7.108;2022-07-29T05:25:44;18.80;99.90
31619;DHT22;18230;51.502;7.108;2022-07-29T05:30:46;18.90;99.90
31619;DHT22;18230;51.502;7.108;2022-07-29T05:35:47;18.90;99.90
31619;DHT22;18230;51.502;7.108;2022-07-29T05:40:47;18.90;99.90
31619;DHT22;18230;51.502;7.108;2022-07-29T05:45:48;18.80;99.90
31619;DHT22;18230;51.502;7.108;2022-07-29T05:50:48;18.60;99.90
31619;DHT22;18230;51.502;7.108;2022-07-29T05:55:49;18.50;99.90
31619;DHT22;18230;51.502;7.108;2022-07-29T06:00:49;18.50;99.90
31619;DHT22;18230;51.502;7.108;2022-07-29T06:05:50;18.60;99.90
31619;DHT22;18230;51.502;7.108;2022-07-29T06:10:51;18.70;99.90
31619;DHT22;18230;51.502;7.108;2022-07-29T06:15:51;18.70;99.90
31619;DHT22;18230;51.502;7.108;2022-07-29T06:20:55;18.70;99.90
31619;DHT22;18230;51.502;7.108;2022-07-29T06:25:56;18.80;99.90
31619;DHT22;18230;51.502;7.108;2022-07-29T06:30:56;18.50;99.90
31619;DHT22;18230;51.502;7.108;2022-07-29T06:35:57;18.50;99.90
31619;DHT22;18230;51.502;7.108;2022-07-29T06:40:57;18.40;99.90
31619;DHT22;18230;51.502;7.108;2022-07-29T06:46:07;18.30;99.90
31619;DHT22;18230;51.502;7.108;2022-07-29T06:51:09;18.30;99.90
31619;DHT22;18230;51.502;7.108;2022-07-29T06:56:09;18.50;99.90
31619;DHT22;18230;51.502;7.108;2022-07-29T07:01:10;18.70;99.90
31619;DHT22;18230;51.502;7.108;2022-07-29T07:06:10;18.80;99.90
31619;DHT22;18230;51.502;7.108;2022-07-29T07:11:11;19.00;99.90
31619;DHT22;18230;51.502;7.108;2022-07-29T07:16:12;19.10;99.90
31619;DHT22;18230;51.502;7.108;2022-07-29T07:21:12;19.30;99.90
31619;DHT22;18230;51.502;7.108;2022-07-29T07:26:13;19.40;99.90
31619;DHT22;18230;51.502;7.108;2022-07-29T07:31:14;19.60;99.90
31619;DHT22;18230;51.502;7.108;2022-07-29T07:36:14;19.70;99.90
31619;DHT22;18230;51.502;7.108;2022-07-29T07:41:15;19.80;99.90
31619;DHT22;18230;51.502;7.108;2022-07-29T07:46:15;20.00;99.90
31619;DHT22;18230;51.502;7.108;2022-07-29T07:51:16;20.00;99.90
31619;DHT22;18230;51.502;7.108;2022-07-29T07:56:16;19.90;99.90
31619;DHT22;18230;51.502;7.108;2022-07-29T08:01:17;20.00;99.90
31619;DHT22;18230;51.502;7.108;2022-07-29T08:06:19;20.10;99.90
31619;DHT22;18230;51.502;7.108;2022-07-29T08:11:20;20.10;99.90
31619;DHT22;18230;51.502;7.108;2022-07-29T08:16:21;20.30;99.90
31619;DHT22;18230;51.502;7.108;2022-07-29T08:21:22;20.40;99.90
31619;DHT22;18230;51.502;7.108;2022-07-29T08:26:23;20.40;99.90
31619;DHT22;18230;51.502;7.108;2022-07-29T08:31:23;20.40;99.90
31619;DHT22;18230;51.502;7.108;2022-07-29T08:36:24;20.40;99.90
31619;DHT22;18230;51.502;7.108;2022-07-29T08:41:25;20.50;99.90
31619;DHT22;18230;51.502;7.108;2022-07-29T08:46:29;20.60;99.90
31619;DHT22;18230;51.502;7.108;2022-07-29T08:51:29;20.70;99.90
31619;DHT22;18230;51.502;7.108;2022-07-29T08:56:33;20.70;99.90
31619;DHT22;18230;51.502;7.108;2022-07-29T09:01:34;20.80;99.90
31619;DHT22;18230;51.502;7.108;2022-07-29T09:06:39;20.80;99.90
31619;DHT22;18230;51.502;7.108;2022-07-29T09:11:42;20.90;99.90
31619;DHT22;18230;51.502;7.108;2022-07-29T09:16:46;20.70;99.90
31619;DHT22;18230;51.502;7.108;2022-07-29T09:21:47;20.60;99.90
31619;DHT22;18230;51.502;7.108;2022-07-29T09:27:00;20.60;99.90
31619;DHT22;18230;51.502;7.108;2022-07-29T09:32:01;20.50;99.90
31619;DHT22;18230;51.502;7.108;2022-07-29T09:37:06;20.50;99.90
31619;DHT22;18230;51.502;7.108;2022-07-29T09:42:06;20.50;99.90
31619;DHT22;18230;51.502;7.108;2022-07-29T09:47:07;20.50;99.90
31619;DHT22;18230;51.502;7.108;2022-07-29T09:52:08;20.50;99.90
31619;DHT22;18230;51.502;7.108;2022-07-29T09:57:21;20.40;99.90
31619;DHT22;18230;51.502;7.108;2022-07-29T10:02:22;20.30;99.90
31619;DHT22;18230;51.502;7.108;2022-07-29T10:07:22;20.30;99.90
31619;DHT22;18230;51.502;7.108;2022-07-29T10:12:24;20.30;99.90
31619;DHT22;18230;51.502;7.108;2022-07-29T10:17:24;20.40;99.90
31619;DHT22;18230;51.502;7.108;2022-07-29T10:22:25;20.40;99.90
31619;DHT22;18230;51.502;7.108;2022-07-29T10:27:26;20.30;99.90
31619;DHT22;18230;51.502;7.108;2022-07-29T10:32:30;20.40;99.90
31619;DHT22;18230;51.502;7.108;2022-07-29T10:43:09;20.20;99.90
31619;DHT22;18230;51.502;7.108;2022-07-29T10:53:16;20.20;99.90
31619;DHT22;18230;51.502;7.108;2022-07-29T11:08:36;20.00;99.90
31619;DHT22;18230;51.502;7.108;2022-07-29T11:19:29;20.20;99.90
31619;DHT22;18230;51.502;7.108;2022-07-29T11:24:14;20.30;99.90
31619;DHT22;18230;51.502;7.108;2022-07-29T11:39:25;21.10;99.90
31619;DHT22;18230;51.502;7.108;2022-07-29T11:44:53;21.30;99.90
31619;DHT22;18230;51.502;7.108;2022-07-29T11:49:46;21.50;99.90
31619;DHT22;18230;51.502;7.108;2022-07-29T11:54:48;21.80;99.90
31619;DHT22;18230;51.502;7.108;2022-07-29T11:59:49;22.10;99.90
31619;DHT22;18230;51.502;7.108;2022-07-29T12:04:50;22.30;99.90
31619;DHT22;18230;51.502;7.108;2022-07-29T12:09:50;22.90;99.90
31619;DHT22;18230;51.502;7.108;2022-07-29T12:14:52;23.10;99.90
31619;DHT22;18230;51.502;7.108;2022-07-29T12:19:53;23.20;99.90
31619;DHT22;18230;51.502;7.108;2022-07-29T12:24:54;23.30;99.90
31619;DHT22;18230;51.502;7.108;2022-07-29T12:29:58;23.40;99.90
31619;DHT22;18230;51.502;7.108;2022-07-29T12:35:01;23.70;99.90
31619;DHT22;18230;51.502;7.108;2022-07-29T12:40:04;23.70;99.90
31619;DHT22;18230;51.502;7.108;2022-07-29T12:45:28;23.70;99.90
31619;DHT22;18230;51.502;7.108;2022-07-29T12:50:29;23.90;99.90
31619;DHT22;18230;51.502;7.108;2022-07-29T12:56:05;24.10;99.90
31619;DHT22;18230;51.502;7.108;2022-07-29T13:01:03;24.10;99.90
31619;DHT22;18230;51.502;7.108;2022-07-29T13:06:04;24.20;99.90
31619;DHT22;18230;51.502;7.108;2022-07-29T13:11:05;24.20;99.90
31619;DHT22;18230;51.502;7.108;2022-07-29T13:16:06;24.40;99.90
31619;DHT22;18230;51.502;7.108;2022-07-29T13:21:12;24.70;99.90
31619;DHT22;18230;51.502;7.108;2022-07-29T13:26:13;24.70;99.90
31619;DHT22;18230;51.502;7.108;2022-07-29T13:31:13;24.80;99.90
31619;DHT22;18230;51.502;7.108;2022-07-29T13:36:14;24.90;99.90
31619;DHT22;18230;51.502;7.108;2022-07-29T13:41:16;25.20;99.90
31619;DHT22;18230;51.502;7.108;2022-07-29T13:46:17;25.30;99.90
31619;DHT22;18230;51.502;7.108;2022-07-29T13:51:17;25.40;99.90
31619;DHT22;18230;51.502;7.108;2022-07-29T13:56:18;25.30;99.90
31619;DHT22;18230;51.502;7.108;2022-07-29T14:01:26;25.40;99.90
31619;DHT22;18230;51.502;7.108;2022-07-29T14:06:27;25.40;99.90
31619;DHT22;18230;51.502;7.108;2022-07-29T14:11:28;25.30;99.90
31619;DHT22;18230;51.502;7.108;2022-07-29T14:16:28;25.80;99.90
31619;DHT22;18230;51.502;7.108;2022-07-29T14:21:29;26.30;99.00
31619;DHT22;18230;51.502;7.108;2022-07-29T14:26:30;26.70;98.70
31619;DHT22;18230;51.502;7.108;2022-07-29T14:31:31;27.00;97.30
31619;DHT22;18230;51.502;7.108;2022-07-29T14:36:31;27.40;95.30
31619;DHT22;18230;51.502;7.108;2022-07-29T14:41:32;27.40;94.80
31619;DHT22;18230;51.502;7.108;2022-07-29T14:46:33;27.70;94.50
31619;DHT22;18230;51.502;7.108;2022-07-29T14:51:33;27.70;94.00
31619;DHT22;18230;51.502;7.108;2022-07-29T14:56:34;27.80;94.50
31619;DHT22;18230;51.502;7.108;2022-07-29T15:01:34;27.90;94.30
31619;DHT22;18230;51.502;7.108;2022-07-29T15:06:35;27.90;94.80
31619;DHT22;18230;51.502;7.108;2022-07-29T15:11:37;28.00;94.60
31619;DHT22;18230;51.502;7.108;2022-07-29T15:16:38;28.00;94.10
31619;DHT22;18230;51.502;7.108;2022-07-29T15:21:40;28.10;93.40
31619;DHT22;18230;51.502;7.108;2022-07-29T15:26:40;28.10;93.40
31619;DHT22;18230;51.502;7.108;2022-07-29T15:31:42;27.80;93.40
31619;DHT22;18230;51.502;7.108;2022-07-29T15:36:43;27.80;93.50
31619;DHT22;18230;51.502;7.108;2022-07-29T15:41:44;27.60;93.70
31619;DHT22;18230;51.502;7.108;2022-07-29T15:46:44;28.00;94.20
31619;DHT22;18230;51.502;7.108;2022-07-29T15:52:07;28.60;92.30
31619;DHT22;18230;51.502;7.108;2022-07-29T15:57:08;28.90;92.20
31619;DHT22;18230;51.502;7.108;2022-07-29T16:02:09;29.00;91.40
31619;DHT22;18230;51.502;7.108;2022-07-29T16:07:10;29.30;90.80
31619;DHT22;18230;51.502;7.108;2022-07-29T16:12:10;29.30;90.10
31619;DHT22;18230;51.502;7.108;2022-07-29T16:17:11;29.20;90.40
31619;DHT22;18230;51.502;7.108;2022-07-29T16:22:14;29.10;90.50
31619;DHT22;18230;51.502;7.108;2022-07-29T16:27:15;29.00;90.00
31619;DHT22;18230;51.502;7.108;2022-07-29T16:32:23;28.90;89.40
31619;DHT22;18230;51.502;7.108;2022-07-29T16:37:23;29.00;89.30
31619;DHT22;18230;51.502;7.108;2022-07-29T16:42:24;28.90;88.40
31619;DHT22;18230;51.502;7.108;2022-07-29T16:47:25;28.80;88.00
31619;DHT22;18230;51.502;7.108;2022-07-29T16:52:25;29.00;87.30
31619;DHT22;18230;51.502;7.108;2022-07-29T16:57:28;28.80;86.80
31619;DHT22;18230;51.502;7.108;2022-07-29T17:02:32;28.60;85.90
31619;DHT22;18230;51.502;7.108;2022-07-29T17:07:32;28.50;86.80
31619;DHT22;18230;51.502;7.108;2022-07-29T17:12:37;28.80;85.20
31619;DHT22;18230;51.502;7.108;2022-07-29T17:17:51;28.80;83.40
31619;DHT22;18230;51.502;7.108;2022-07-29T17:22:52;28.60;84.60
31619;DHT22;18230;51.502;7.108;2022-07-29T17:28:14;28.90;84.10
31619;DHT22;18230;51.502;7.108;2022-07-29T17:33:17;29.10;84.00
31619;DHT22;18230;51.502;7.108;2022-07-29T17:38:20;29.40;82.70
31619;DHT22;18230;51.502;7.108;2022-07-29T17:43:20;29.60;81.90
31619;DHT22;18230;51.502;7.108;2022-07-29T17:54:27;28.90;81.60
31619;DHT22;18230;51.502;7.108;2022-07-29T18:11:36;29.50;80.80
31619;DHT22;18230;51.502;7.108;2022-07-29T18:28:24;28.60;83.20
31619;DHT22;18230;51.502;7.108;2022-07-29T18:33:25;28.40;82.70
31619;DHT22;18230;51.502;7.108;2022-07-29T18:38:26;28.50;83.00
31619;DHT22;18230;51.502;7.108;2022-07-29T18:43:26;28.30;82.20
31619;DHT22;18230;51.502;7.108;2022-07-29T18:48:27;27.90;83.50
31619;DHT22;18230;51.502;7.108;2022-07-29T18:53:27;27.70;83.80
31619;DHT22;18230;51.502;7.108;2022-07-29T18:58:28;27.50;84.80
31619;DHT22;18230;51.502;7.108;2022-07-29T19:03:28;27.40;85.30
31619;DHT22;18230;51.502;7.108;2022-07-29T19:08:29;27.20;85.50
31619;DHT22;18230;51.502;7.108;2022-07-29T19:13:29;26.70;87.60
31619;DHT22;18230;51.502;7.108;2022-07-29T19:18:30;26.50;89.20
31619;DHT22;18230;51.502;7.108;2022-07-29T19:23:31;26.30;90.90
31619;DHT22;18230;51.502;7.108;2022-07-29T19:28:34;26.20;91.80
31619;DHT22;18230;51.502;7.108;2022-07-29T19:33:34;25.90;91.90
31619;DHT22;18230;51.502;7.108;2022-07-29T19:38:44;25.60;93.10
31619;DHT22;18230;51.502;7.108;2022-07-29T19:43:44;25.20;94.00
31619;DHT22;18230;51.502;7.108;2022-07-29T19:48:45;24.90;95.00
31619;DHT22;18230;51.502;7.108;2022-07-29T19:53:46;24.70;95.90
31619;DHT22;18230;51.502;7.108;2022-07-29T19:58:46;24.70;96.50
31619;DHT22;18230;51.502;7.108;2022-07-29T20:03:47;24.40;97.60
31619;DHT22;18230;51.502;7.108;2022-07-29T20:08:47;24.10;99.30
31619;DHT22;18230;51.502;7.108;2022-07-29T20:13:48;23.90;99.90
31619;DHT22;18230;51.502;7.108;2022-07-29T20:18:48;23.70;99.90
31619;DHT22;18230;51.502;7.108;2022-07-29T20:23:49;23.50;99.90
31619;DHT22;18230;51.502;7.108;2022-07-29T20:28:49;23.40;99.90
31619;DHT22;18230;51.502;7.108;2022-07-29T20:33:50;23.30;99.90
31619;DHT22;18230;51.502;7.108;2022-07-29T20:38:51;23.40;99.90
31619;DHT22;18230;51.502;7.108;2022-07-29T20:43:52;23.30;99.90
31619;DHT22;18230;51.502;7.108;2022-07-29T20:48:52;23.00;99.90
31619;DHT22;18230;51.502;7.108;2022-07-29T20:53:53;22.90;99.90
31619;DHT22;18230;51.502;7.108;2022-07-29T20:58:53;22.70;99.90
31619;DHT22;18230;51.502;7.108;2022-07-29T21:03:54;22.60;99.90
31619;DHT22;18230;51.502;7.108;2022-07-29T21:08:55;22.40;99.90
31619;DHT22;18230;51.502;7.108;2022-07-29T21:13:57;22.20;99.90
31619;DHT22;18230;51.502;7.108;2022-07-29T21:18:57;22.00;99.90
31619;DHT22;18230;51.502;7.108;2022-07-29T21:23:58;21.90;99.90
31619;DHT22;18230;51.502;7.108;2022-07-29T21:29:01;21.90;99.90
31619;DHT22;18230;51.502;7.108;2022-07-29T21:34:02;21.70;99.90
31619;DHT22;18230;51.502;7.108;2022-07-29T21:39:02;21.60;99.90
31619;DHT22;18230;51.502;7.108;2022-07-29T21:44:06;21.70;99.90
31619;DHT22;18230;51.502;7.108;2022-07-29T21:49:06;21.60;99.90
31619;DHT22;18230;51.502;7.108;2022-07-29T21:54:07;21.60;99.90
31619;DHT22;18230;51.502;7.108;2022-07-29T21:59:07;21.60;99.90
31619;DHT22;18230;51.502;7.108;2022-07-29T22:04:08;21.60;99.90
31619;DHT22;18230;51.502;7.108;2022-07-29T22:09:08;21.70;99.90
31619;DHT22;18230;51.502;7.108;2022-07-29T22:14:09;21.70;99.90
31619;DHT22;18230;51.502;7.108;2022-07-29T22:19:10;21.40;99.90
31619;DHT22;18230;51.502;7.108;2022-07-29T22:24:10;21.30;99.90
31619;DHT22;18230;51.502;7.108;2022-07-29T22:29:11;21.30;99.90
31619;DHT22;18230;51.502;7.108;2022-07-29T22:34:11;21.20;99.90
31619;DHT22;18230;51.502;7.108;2022-07-29T22:39:12;21.10;99.90
31619;DHT22;18230;51.502;7.108;2022-07-29T22:44:13;21.10;99.90
31619;DHT22;18230;51.502;7.108;2022-07-29T22:49:13;21.10;99.90
31619;DHT22;18230;51.502;7.108;2022-07-29T22:54:14;21.00;99.90
31619;DHT22;18230;51.502;7.108;2022-07-29T22:59:14;20.90;99.90
31619;DHT22;18230;51.502;7.108;2022-07-29T23:04:15;20.90;99.90
31619;DHT22;18230;51.502;7.108;2022-07-29T23:09:15;20.90;99.90
31619;DHT22;18230;51.502;7.108;2022-07-29T23:14:16;20.90;99.90
31619;DHT22;18230;51.502;7.108;2022-07-29T23:19:17;20.90;99.90
31619;DHT22;18230;51.502;7.108;2022-07-29T23:24:17;20.90;99.90
31619;DHT22;18230;51.502;7.108;2022-07-29T23:29:18;20.90;99.90
31619;DHT22;18230;51.502;7.108;2022-07-29T23:34:18;20.80;99.90
31619;DHT22;18230;51.502;7.108;2022-07-29T23:39:19;20.80;99.90
31619;DHT22;18230;51.502;7.108;2022-07-29T23:44:19;20.80;99.90
31619;DHT22;18230;51.502;7.108;2022-07-29T23:49:20;20.80;99.90
31619;DHT22;18230;51.502;7.108;2022-07-29T23:54:24;20.70;99.90
31619;DHT22;18230;51.502;7.108;2022-07-29T23:59:24;20.60;99.90
